sensor_id;sensor_type;location;lat;lon;timestamp;P1;durP1;ratioP1;P2;durP2;ratioP2
29002;SDS011;16102;57.138;-2.118;2023-03-09T19:49:45;6.63;;;2.97;;
29002;SDS011;16102;57.138;-2.118;2023-03-09T19:52:13;9.77;;;3.03;;
29002;SDS011;16102;57.138;-2.118;2023-03-09T19:54:41;8.75;;;1.90;;
29002;SDS011;16102;57.138;-2.118;2023-03-09T19:57:11;7.15;;;1.52;;
29002;SDS011;16102;57.138;-2.118;2023-03-09T19:59:43;8.55;;;1.60;;
29002;SDS011;16102;57.138;-2.118;2023-03-09T20:02:10;4.30;;;1.02;;
29002;SDS011;16102;57.138;-2.118;2023-03-09T20:04:38;3.17;;;1.10;;
29002;SDS011;16102;57.138;-2.118;2023-03-09T20:07:06;5.40;;;1.30;;
29002;SDS011;16102;57.138;-2.118;2023-03-09T20:09:37;9.52;;;1.80;;
29002;SDS011;16102;57.138;-2.118;2023-03-09T20:12:04;11.23;;;1.83;;
29002;SDS011;16102;57.138;-2.118;2023-03-09T20:14:31;5.63;;;1.70;;
29002;SDS011;16102;57.138;-2.118;2023-03-09T20:16:59;4.30;;;1.67;;
29002;SDS011;16102;57.138;-2.118;2023-03-09T20:19:26;8.60;;;2.90;;
29002;SDS011;16102;57.138;-2.118;2023-03-09T20:21:55;4.32;;;1.38;;
29002;SDS011;16102;57.138;-2.118;2023-03-09T20:24:23;8.15;;;1.63;;
29002;SDS011;16102;57.138;-2.118;2023-03-09T20:26:50;12.07;;;1.92;;
29002;SDS011;16102;57.138;-2.118;2023-03-09T20:29:18;7.15;;;1.33;;
29002;SDS011;16102;57.138;-2.118;2023-03-09T20:31:47;4.03;;;1.70;;
29002;SDS011;16102;57.138;-2.118;2023-03-09T20:34:16;5.38;;;2.13;;
29002;SDS011;16102;57.138;-2.118;2023-03-09T20:36:44;10.43;;;2.83;;
29002;SDS011;16102;57.138;-2.118;2023-03-09T20:39:11;7.95;;;2.55;;
29002;SDS011;16102;57.138;-2.118;2023-03-09T20:41:39;4.15;;;1.85;;
29002;SDS011;16102;57.138;-2.118;2023-03-09T20:44:07;5.85;;;1.50;;
29002;SDS011;16102;57.138;-2.118;2023-03-09T20:46:37;10.18;;;2.45;;
29002;SDS011;16102;57.138;-2.118;2023-03-09T20:49:05;8.73;;;2.25;;
29002;SDS011;16102;57.138;-2.118;2023-03-09T20:51:32;5.03;;;1.52;;
29002;SDS011;16102;57.138;-2.118;2023-03-09T20:54:00;7.30;;;2.05;;
29002;SDS011;16102;57.138;-2.118;2023-03-09T20:56:29;7.13;;;1.17;;
29002;SDS011;16102;57.138;-2.118;2023-03-09T20:58:57;8.80;;;1.85;;
29002;SDS011;16102;57.138;-2.118;2023-03-09T21:01:25;7.88;;;1.50;;
29002;SDS011;16102;57.138;-2.118;2023-03-09T21:03:56;7.65;;;1.98;;
29002;SDS011;16102;57.138;-2.118;2023-03-09T21:06:24;4.53;;;1.60;;
29002;SDS011;16102;57.138;-2.118;2023-03-09T21:08:52;5.80;;;2.05;;
29002;SDS011;16102;57.138;-2.118;2023-03-09T21:11:20;14.02;;;2.88;;
29002;SDS011;16102;57.138;-2.118;2023-03-09T21:13:48;6.90;;;2.67;;
29002;SDS011;16102;57.138;-2.118;2023-03-09T21:16:22;9.02;;;2.20;;
29002;SDS011;16102;57.138;-2.118;2023-03-09T21:18:50;9.30;;;1.30;;
29002;SDS011;16102;57.138;-2.118;2023-03-09T21:21:20;6.88;;;1.50;;
29002;SDS011;16102;57.138;-2.118;2023-03-09T21:23:49;4.38;;;1.20;;
29002;SDS011;16102;57.138;-2.118;2023-03-09T21:26:19;5.88;;;1.40;;
29002;SDS011;16102;57.138;-2.118;2023-03-09T21:28:55;8.10;;;0.90;;
29002;SDS011;16102;57.138;-2.118;2023-03-09T21:31:25;5.97;;;1.30;;
29002;SDS011;16102;57.138;-2.118;2023-03-09T21:33:58;6.45;;;1.25;;
29002;SDS011;16102;57.138;-2.118;2023-03-09T21:36:25;6.05;;;1.45;;
29002;SDS011;16102;57.138;-2.118;2023-03-09T21:38:54;18.80;;;5.57;;
29002;SDS011;16102;57.138;-2.118;2023-03-09T21:41:22;9.15;;;3.17;;
29002;SDS011;16102;57.138;-2.118;2023-03-09T21:43:50;6.60;;;1.98;;
29002;SDS011;16102;57.138;-2.118;2023-03-09T21:46:18;4.78;;;2.13;;
29002;SDS011;16102;57.138;-2.118;2023-03-09T21:48:49;18.33;;;5.78;;
29002;SDS011;16102;57.138;-2.118;2023-03-09T21:51:19;6.75;;;2.33;;
29002;SDS011;16102;57.138;-2.118;2023-03-09T21:53:50;24.05;;;7.72;;
29002;SDS011;16102;57.138;-2.118;2023-03-09T21:56:20;16.17;;;6.55;;
29002;SDS011;16102;57.138;-2.118;2023-03-09T21:58:48;18.15;;;4.47;;
29002;SDS011;16102;57.138;-2.118;2023-03-09T22:01:19;12.75;;;3.75;;
29002;SDS011;16102;57.138;-2.118;2023-03-09T22:03:51;10.27;;;3.03;;
29002;SDS011;16102;57.138;-2.118;2023-03-09T22:06:22;5.30;;;1.38;;
29002;SDS011;16102;57.138;-2.118;2023-03-09T22:08:55;3.22;;;1.60;;
29002;SDS011;16102;57.138;-2.118;2023-03-09T22:11:23;6.70;;;1.98;;
29002;SDS011;16102;57.138;-2.118;2023-03-09T22:13:52;6.90;;;1.50;;
29002;SDS011;16102;57.138;-2.118;2023-03-09T22:16:23;12.35;;;1.67;;
29002;SDS011;16102;57.138;-2.118;2023-03-09T22:18:54;5.07;;;1.35;;
29002;SDS011;16102;57.138;-2.118;2023-03-09T22:21:23;9.23;;;1.40;;
29002;SDS011;16102;57.138;-2.118;2023-03-09T22:23:51;4.30;;;0.90;;
29002;SDS011;16102;57.138;-2.118;2023-03-09T22:26:19;8.20;;;0.82;;
29002;SDS011;16102;57.138;-2.118;2023-03-09T22:28:47;4.30;;;1.27;;
29002;SDS011;16102;57.138;-2.118;2023-03-09T22:31:14;9.00;;;1.30;;
29002;SDS011;16102;57.138;-2.118;2023-03-09T22:33:43;8.63;;;1.02;;
29002;SDS011;16102;57.138;-2.118;2023-03-09T22:36:11;5.78;;;1.40;;
29002;SDS011;16102;57.138;-2.118;2023-03-09T22:38:40;8.25;;;0.80;;
29002;SDS011;16102;57.138;-2.118;2023-03-09T22:41:09;5.07;;;0.60;;
29002;SDS011;16102;57.138;-2.118;2023-03-09T22:43:38;3.55;;;0.73;;
29002;SDS011;16102;57.138;-2.118;2023-03-09T22:46:06;2.95;;;0.90;;
29002;SDS011;16102;57.138;-2.118;2023-03-09T22:48:34;0.98;;;0.50;;
29002;SDS011;16102;57.138;-2.118;2023-03-09T22:51:04;1.35;;;0.40;;
29002;SDS011;16102;57.138;-2.118;2023-03-09T22:53:34;1.73;;;0.50;;
29002;SDS011;16102;57.138;-2.118;2023-03-09T22:56:03;2.88;;;0.70;;
29002;SDS011;16102;57.138;-2.118;2023-03-09T22:58:31;8.05;;;1.40;;
29002;SDS011;16102;57.138;-2.118;2023-03-09T23:01:01;1.85;;;1.20;;
29002;SDS011;16102;57.138;-2.118;2023-03-09T23:03:29;3.30;;;0.95;;
29002;SDS011;16102;57.138;-2.118;2023-03-09T23:05:57;6.28;;;1.38;;
29002;SDS011;16102;57.138;-2.118;2023-03-09T23:08:26;1.92;;;0.80;;
29002;SDS011;16102;57.138;-2.118;2023-03-09T23:10:53;4.32;;;1.05;;
29002;SDS011;16102;57.138;-2.118;2023-03-09T23:13:20;1.27;;;0.68;;
29002;SDS011;16102;57.138;-2.118;2023-03-09T23:15:47;3.58;;;0.95;;
29002;SDS011;16102;57.138;-2.118;2023-03-09T23:18:32;1.83;;;0.47;;
29002;SDS011;16102;57.138;-2.118;2023-03-09T23:20:59;3.28;;;0.57;;
29002;SDS011;16102;57.138;-2.118;2023-03-09T23:23:26;2.97;;;0.65;;
29002;SDS011;16102;57.138;-2.118;2023-03-09T23:25:54;2.25;;;0.65;;
29002;SDS011;16102;57.138;-2.118;2023-03-09T23:28:21;0.47;;;0.30;;
29002;SDS011;16102;57.138;-2.118;2023-03-09T23:30:48;2.22;;;0.60;;
29002;SDS011;16102;57.138;-2.118;2023-03-09T23:33:15;4.63;;;0.80;;
29002;SDS011;16102;57.138;-2.118;2023-03-09T23:35:42;2.83;;;0.88;;
29002;SDS011;16102;57.138;-2.118;2023-03-09T23:38:10;7.97;;;1.55;;
29002;SDS011;16102;57.138;-2.118;2023-03-09T23:40:41;3.97;;;1.45;;
29002;SDS011;16102;57.138;-2.118;2023-03-09T23:43:09;2.35;;;1.15;;
29002;SDS011;16102;57.138;-2.118;2023-03-09T23:45:36;3.67;;;1.00;;
29002;SDS011;16102;57.138;-2.118;2023-03-09T23:48:04;8.63;;;1.00;;
29002;SDS011;16102;57.138;-2.118;2023-03-09T23:50:31;1.40;;;0.65;;
29002;SDS011;16102;57.138;-2.118;2023-03-09T23:52:58;2.17;;;1.25;;
29002;SDS011;16102;57.138;-2.118;2023-03-09T23:55:25;8.68;;;2.60;;
29002;SDS011;16102;57.138;-2.118;2023-03-09T23:57:53;4.90;;;2.08;;
